sensor_id;sensor_type;location;lat;lon;timestamp;P1;durP1;ratioP1;P2;durP2;ratioP2
30080;SDS011;16902;50.816;12.828;2022-07-11T00:04:14;3.08;;;1.80;;
30080;SDS011;16902;50.816;12.828;2022-07-11T00:09:17;3.83;;;2.08;;
30080;SDS011;16902;50.816;12.828;2022-07-11T00:14:19;2.85;;;1.83;;
30080;SDS011;16902;50.816;12.828;2022-07-11T00:19:21;2.13;;;1.85;;
30080;SDS011;16902;50.816;12.828;2022-07-11T00:24:24;3.30;;;1.80;;
30080;SDS011;16902;50.816;12.828;2022-07-11T00:29:26;4.35;;;1.80;;
30080;SDS011;16902;50.816;12.828;2022-07-11T00:34:28;3.53;;;1.88;;
30080;SDS011;16902;50.816;12.828;2022-07-11T00:39:30;3.38;;;2.42;;
30080;SDS011;16902;50.816;12.828;2022-07-11T00:44:32;4.18;;;1.95;;
30080;SDS011;16902;50.816;12.828;2022-07-11T00:49:34;3.63;;;2.42;;
30080;SDS011;16902;50.816;12.828;2022-07-11T00:54:35;2.42;;;2.20;;
30080;SDS011;16902;50.816;12.828;2022-07-11T00:59:37;2.95;;;2.10;;
30080;SDS011;16902;50.816;12.828;2022-07-11T01:04:40;3.85;;;2.45;;
30080;SDS011;16902;50.816;12.828;2022-07-11T01:09:42;3.25;;;2.45;;
30080;SDS011;16902;50.816;12.828;2022-07-11T01:14:53;3.42;;;2.20;;
30080;SDS011;16902;50.816;12.828;2022-07-11T01:19:56;2.85;;;1.98;;
30080;SDS011;16902;50.816;12.828;2022-07-11T01:24:58;3.63;;;2.38;;
30080;SDS011;16902;50.816;12.828;2022-07-11T01:30:00;2.47;;;2.17;;
30080;SDS011;16902;50.816;12.828;2022-07-11T01:35:02;6.85;;;2.97;;
30080;SDS011;16902;50.816;12.828;2022-07-11T01:40:04;3.53;;;2.80;;
30080;SDS011;16902;50.816;12.828;2022-07-11T01:45:07;2.58;;;2.38;;
30080;SDS011;16902;50.816;12.828;2022-07-11T01:50:10;4.25;;;2.70;;
30080;SDS011;16902;50.816;12.828;2022-07-11T01:55:12;2.95;;;2.50;;
30080;SDS011;16902;50.816;12.828;2022-07-11T02:00:14;4.55;;;2.95;;
30080;SDS011;16902;50.816;12.828;2022-07-11T02:05:16;5.30;;;3.30;;
30080;SDS011;16902;50.816;12.828;2022-07-11T02:10:18;5.93;;;3.00;;
30080;SDS011;16902;50.816;12.828;2022-07-11T02:15:20;4.05;;;3.28;;
30080;SDS011;16902;50.816;12.828;2022-07-11T02:20:22;4.05;;;3.08;;
30080;SDS011;16902;50.816;12.828;2022-07-11T02:25:25;3.95;;;3.08;;
30080;SDS011;16902;50.816;12.828;2022-07-11T02:30:27;5.93;;;3.20;;
30080;SDS011;16902;50.816;12.828;2022-07-11T02:35:29;4.55;;;3.22;;
30080;SDS011;16902;50.816;12.828;2022-07-11T02:40:31;4.13;;;3.33;;
30080;SDS011;16902;50.816;12.828;2022-07-11T02:45:33;4.90;;;3.65;;
30080;SDS011;16902;50.816;12.828;2022-07-11T02:50:35;7.00;;;3.33;;
30080;SDS011;16902;50.816;12.828;2022-07-11T02:55:37;4.15;;;2.63;;
30080;SDS011;16902;50.816;12.828;2022-07-11T03:00:39;3.58;;;3.20;;
30080;SDS011;16902;50.816;12.828;2022-07-11T03:05:42;3.97;;;3.25;;
30080;SDS011;16902;50.816;12.828;2022-07-11T03:10:43;5.18;;;3.60;;
30080;SDS011;16902;50.816;12.828;2022-07-11T03:15:45;5.53;;;3.42;;
30080;SDS011;16902;50.816;12.828;2022-07-11T03:20:47;3.28;;;2.88;;
30080;SDS011;16902;50.816;12.828;2022-07-11T03:25:48;5.05;;;3.55;;
30080;SDS011;16902;50.816;12.828;2022-07-11T03:30:50;5.35;;;3.78;;
30080;SDS011;16902;50.816;12.828;2022-07-11T03:35:52;7.97;;;3.60;;
30080;SDS011;16902;50.816;12.828;2022-07-11T03:40:53;7.60;;;4.03;;
30080;SDS011;16902;50.816;12.828;2022-07-11T03:45:57;4.40;;;3.30;;
30080;SDS011;16902;50.816;12.828;2022-07-11T03:50:59;4.88;;;3.90;;
30080;SDS011;16902;50.816;12.828;2022-07-11T03:56:00;7.20;;;4.22;;
30080;SDS011;16902;50.816;12.828;2022-07-11T04:01:02;5.50;;;3.78;;
30080;SDS011;16902;50.816;12.828;2022-07-11T04:06:04;5.90;;;3.67;;
30080;SDS011;16902;50.816;12.828;2022-07-11T04:11:06;3.75;;;3.38;;
30080;SDS011;16902;50.816;12.828;2022-07-11T04:16:08;9.43;;;3.90;;
30080;SDS011;16902;50.816;12.828;2022-07-11T04:21:09;3.50;;;3.20;;
30080;SDS011;16902;50.816;12.828;2022-07-11T04:26:12;3.67;;;3.10;;
30080;SDS011;16902;50.816;12.828;2022-07-11T04:31:14;3.97;;;2.72;;
30080;SDS011;16902;50.816;12.828;2022-07-11T04:36:16;5.47;;;3.10;;
30080;SDS011;16902;50.816;12.828;2022-07-11T04:41:17;3.08;;;2.78;;
30080;SDS011;16902;50.816;12.828;2022-07-11T04:46:19;3.92;;;3.50;;
30080;SDS011;16902;50.816;12.828;2022-07-11T04:51:21;3.92;;;3.50;;
30080;SDS011;16902;50.816;12.828;2022-07-11T04:56:23;6.22;;;3.10;;
30080;SDS011;16902;50.816;12.828;2022-07-11T05:01:24;7.35;;;3.88;;
30080;SDS011;16902;50.816;12.828;2022-07-11T05:06:27;3.40;;;2.90;;
30080;SDS011;16902;50.816;12.828;2022-07-11T05:11:30;6.15;;;3.47;;
30080;SDS011;16902;50.816;12.828;2022-07-11T05:16:31;7.40;;;6.30;;
30080;SDS011;16902;50.816;12.828;2022-07-11T05:21:33;9.45;;;6.72;;
30080;SDS011;16902;50.816;12.828;2022-07-11T05:26:35;7.22;;;6.53;;
30080;SDS011;16902;50.816;12.828;2022-07-11T05:31:37;7.88;;;6.30;;
30080;SDS011;16902;50.816;12.828;2022-07-11T05:36:39;8.90;;;6.22;;
30080;SDS011;16902;50.816;12.828;2022-07-11T05:41:41;6.88;;;6.20;;
30080;SDS011;16902;50.816;12.828;2022-07-11T05:46:42;7.22;;;5.90;;
30080;SDS011;16902;50.816;12.828;2022-07-11T05:51:44;6.90;;;5.40;;
30080;SDS011;16902;50.816;12.828;2022-07-11T05:56:46;7.28;;;4.43;;
30080;SDS011;16902;50.816;12.828;2022-07-11T06:01:48;6.10;;;4.18;;
30080;SDS011;16902;50.816;12.828;2022-07-11T06:06:50;5.25;;;3.33;;
30080;SDS011;16902;50.816;12.828;2022-07-11T06:11:51;6.97;;;3.85;;
30080;SDS011;16902;50.816;12.828;2022-07-11T06:16:53;4.82;;;3.63;;
30080;SDS011;16902;50.816;12.828;2022-07-11T06:21:55;6.38;;;2.55;;
30080;SDS011;16902;50.816;12.828;2022-07-11T06:26:57;6.03;;;1.90;;
30080;SDS011;16902;50.816;12.828;2022-07-11T06:32:02;6.63;;;2.25;;
30080;SDS011;16902;50.816;12.828;2022-07-11T06:37:04;6.20;;;2.70;;
30080;SDS011;16902;50.816;12.828;2022-07-11T06:42:05;7.43;;;3.15;;
30080;SDS011;16902;50.816;12.828;2022-07-11T06:47:07;3.03;;;2.72;;
30080;SDS011;16902;50.816;12.828;2022-07-11T06:52:09;3.55;;;2.80;;
30080;SDS011;16902;50.816;12.828;2022-07-11T06:57:11;2.85;;;2.65;;
30080;SDS011;16902;50.816;12.828;2022-07-11T07:02:13;2.28;;;2.08;;
30080;SDS011;16902;50.816;12.828;2022-07-11T07:07:15;3.45;;;1.75;;
30080;SDS011;16902;50.816;12.828;2022-07-11T07:12:16;3.00;;;2.20;;
30080;SDS011;16902;50.816;12.828;2022-07-11T07:17:18;2.53;;;2.05;;
30080;SDS011;16902;50.816;12.828;2022-07-11T07:22:20;2.60;;;2.20;;
30080;SDS011;16902;50.816;12.828;2022-07-11T07:27:21;3.22;;;1.90;;
30080;SDS011;16902;50.816;12.828;2022-07-11T07:32:23;3.42;;;1.70;;
30080;SDS011;16902;50.816;12.828;2022-07-11T07:37:25;3.08;;;1.90;;
30080;SDS011;16902;50.816;12.828;2022-07-11T07:42:26;3.00;;;2.05;;
30080;SDS011;16902;50.816;12.828;2022-07-11T07:47:28;2.38;;;2.08;;
30080;SDS011;16902;50.816;12.828;2022-07-11T07:52:31;1.83;;;1.63;;
30080;SDS011;16902;50.816;12.828;2022-07-11T07:57:34;3.20;;;1.20;;
30080;SDS011;16902;50.816;12.828;2022-07-11T08:02:35;3.60;;;1.10;;
30080;SDS011;16902;50.816;12.828;2022-07-11T08:07:37;1.85;;;1.10;;
30080;SDS011;16902;50.816;12.828;2022-07-11T08:12:39;3.65;;;1.50;;
30080;SDS011;16902;50.816;12.828;2022-07-11T08:17:41;1.40;;;1.10;;
30080;SDS011;16902;50.816;12.828;2022-07-11T08:22:45;1.38;;;1.08;;
30080;SDS011;16902;50.816;12.828;2022-07-11T08:27:48;3.58;;;1.50;;
30080;SDS011;16902;50.816;12.828;2022-07-11T08:32:49;3.30;;;1.35;;
30080;SDS011;16902;50.816;12.828;2022-07-11T08:37:51;1.40;;;1.02;;
30080;SDS011;16902;50.816;12.828;2022-07-11T08:42:53;3.75;;;1.08;;
30080;SDS011;16902;50.816;12.828;2022-07-11T08:47:58;3.72;;;1.05;;
30080;SDS011;16902;50.816;12.828;2022-07-11T08:53:02;2.33;;;1.33;;
30080;SDS011;16902;50.816;12.828;2022-07-11T08:58:13;1.88;;;1.17;;
30080;SDS011;16902;50.816;12.828;2022-07-11T09:03:16;2.08;;;1.27;;
30080;SDS011;16902;50.816;12.828;2022-07-11T09:08:19;3.33;;;1.58;;
30080;SDS011;16902;50.816;12.828;2022-07-11T09:13:20;1.85;;;1.40;;
30080;SDS011;16902;50.816;12.828;2022-07-11T09:18:31;1.30;;;1.20;;
30080;SDS011;16902;50.816;12.828;2022-07-11T09:23:37;1.30;;;1.20;;
30080;SDS011;16902;50.816;12.828;2022-07-11T09:29:07;2.22;;;1.20;;
30080;SDS011;16902;50.816;12.828;2022-07-11T09:34:14;1.20;;;1.10;;
30080;SDS011;16902;50.816;12.828;2022-07-11T09:39:18;1.30;;;1.20;;
30080;SDS011;16902;50.816;12.828;2022-07-11T09:44:22;1.33;;;1.20;;
30080;SDS011;16902;50.816;12.828;2022-07-11T09:49:35;2.30;;;1.27;;
30080;SDS011;16902;50.816;12.828;2022-07-11T09:54:57;1.40;;;1.30;;
30080;SDS011;16902;50.816;12.828;2022-07-11T10:00:08;1.20;;;1.10;;
30080;SDS011;16902;50.816;12.828;2022-07-11T10:05:13;1.75;;;1.42;;
30080;SDS011;16902;50.816;12.828;2022-07-11T10:10:14;1.63;;;1.52;;
30080;SDS011;16902;50.816;12.828;2022-07-11T10:15:19;1.45;;;1.35;;
30080;SDS011;16902;50.816;12.828;2022-07-11T10:20:43;1.92;;;1.25;;
30080;SDS011;16902;50.816;12.828;2022-07-11T10:26:01;1.35;;;1.25;;
30080;SDS011;16902;50.816;12.828;2022-07-11T10:31:19;1.20;;;1.10;;
30080;SDS011;16902;50.816;12.828;2022-07-11T10:36:26;1.05;;;0.93;;
30080;SDS011;16902;50.816;12.828;2022-07-11T10:41:28;3.65;;;0.88;;
30080;SDS011;16902;50.816;12.828;2022-07-11T10:46:30;1.20;;;1.10;;
30080;SDS011;16902;50.816;12.828;2022-07-11T11:13:33;0.70;;;0.70;;
30080;SDS011;16902;50.816;12.828;2022-07-11T11:18:37;0.60;;;0.60;;
30080;SDS011;16902;50.816;12.828;2022-07-11T11:29:01;0.60;;;0.60;;
30080;SDS011;16902;50.816;12.828;2022-07-11T11:34:06;1.25;;;0.60;;
30080;SDS011;16902;50.816;12.828;2022-07-11T11:39:08;2.65;;;0.60;;
30080;SDS011;16902;50.816;12.828;2022-07-11T11:44:10;1.17;;;0.60;;
30080;SDS011;16902;50.816;12.828;2022-07-11T11:49:12;0.57;;;0.57;;
30080;SDS011;16902;50.816;12.828;2022-07-11T11:54:21;0.65;;;0.65;;
30080;SDS011;16902;50.816;12.828;2022-07-11T11:59:28;0.82;;;0.50;;
30080;SDS011;16902;50.816;12.828;2022-07-11T12:04:32;1.23;;;0.60;;
30080;SDS011;16902;50.816;12.828;2022-07-11T12:09:35;1.90;;;0.80;;
30080;SDS011;16902;50.816;12.828;2022-07-11T12:14:50;3.13;;;0.70;;
30080;SDS011;16902;50.816;12.828;2022-07-11T12:19:52;0.68;;;0.52;;
30080;SDS011;16902;50.816;12.828;2022-07-11T12:24:54;1.10;;;0.50;;
30080;SDS011;16902;50.816;12.828;2022-07-11T12:29:56;1.33;;;0.50;;
30080;SDS011;16902;50.816;12.828;2022-07-11T12:34:58;1.27;;;0.47;;
30080;SDS011;16902;50.816;12.828;2022-07-11T12:40:13;0.50;;;0.50;;
30080;SDS011;16902;50.816;12.828;2022-07-11T12:45:16;0.57;;;0.50;;
30080;SDS011;16902;50.816;12.828;2022-07-11T12:50:22;1.13;;;0.50;;
30080;SDS011;16902;50.816;12.828;2022-07-11T12:55:26;0.98;;;0.50;;
30080;SDS011;16902;50.816;12.828;2022-07-11T13:00:30;2.33;;;0.73;;
30080;SDS011;16902;50.816;12.828;2022-07-11T13:05:46;1.58;;;0.63;;
30080;SDS011;16902;50.816;12.828;2022-07-11T13:10:49;1.65;;;0.60;;
30080;SDS011;16902;50.816;12.828;2022-07-11T13:16:07;0.85;;;0.60;;
30080;SDS011;16902;50.816;12.828;2022-07-11T13:21:09;2.40;;;0.57;;
30080;SDS011;16902;50.816;12.828;2022-07-11T13:26:11;0.68;;;0.50;;
30080;SDS011;16902;50.816;12.828;2022-07-11T13:31:13;1.20;;;0.40;;
30080;SDS011;16902;50.816;12.828;2022-07-11T13:36:17;0.30;;;0.30;;
30080;SDS011;16902;50.816;12.828;2022-07-11T13:41:19;2.25;;;0.52;;
30080;SDS011;16902;50.816;12.828;2022-07-11T13:46:21;0.47;;;0.47;;
30080;SDS011;16902;50.816;12.828;2022-07-11T13:51:30;0.65;;;0.60;;
30080;SDS011;16902;50.816;12.828;2022-07-11T13:56:31;1.50;;;0.52;;
30080;SDS011;16902;50.816;12.828;2022-07-11T14:01:33;1.80;;;0.65;;
30080;SDS011;16902;50.816;12.828;2022-07-11T14:06:35;1.25;;;0.60;;
30080;SDS011;16902;50.816;12.828;2022-07-11T14:11:55;0.98;;;0.50;;
30080;SDS011;16902;50.816;12.828;2022-07-11T14:16:57;1.67;;;0.65;;
30080;SDS011;16902;50.816;12.828;2022-07-11T14:21:59;0.70;;;0.60;;
30080;SDS011;16902;50.816;12.828;2022-07-11T14:27:01;0.70;;;0.50;;
30080;SDS011;16902;50.816;12.828;2022-07-11T14:32:04;0.80;;;0.55;;
30080;SDS011;16902;50.816;12.828;2022-07-11T14:37:06;0.50;;;0.50;;
30080;SDS011;16902;50.816;12.828;2022-07-11T14:42:07;0.93;;;0.60;;
30080;SDS011;16902;50.816;12.828;2022-07-11T14:47:29;2.08;;;1.60;;
30080;SDS011;16902;50.816;12.828;2022-07-11T14:52:31;1.00;;;0.60;;
30080;SDS011;16902;50.816;12.828;2022-07-11T14:57:33;2.13;;;0.50;;
30080;SDS011;16902;50.816;12.828;2022-07-11T15:02:34;0.80;;;0.50;;
30080;SDS011;16902;50.816;12.828;2022-07-11T15:07:59;0.57;;;0.40;;
30080;SDS011;16902;50.816;12.828;2022-07-11T15:13:19;1.00;;;0.60;;
30080;SDS011;16902;50.816;12.828;2022-07-11T15:18:22;0.98;;;0.60;;
30080;SDS011;16902;50.816;12.828;2022-07-11T15:23:24;0.85;;;0.50;;
30080;SDS011;16902;50.816;12.828;2022-07-11T15:28:26;0.73;;;0.50;;
30080;SDS011;16902;50.816;12.828;2022-07-11T15:33:34;0.68;;;0.40;;
30080;SDS011;16902;50.816;12.828;2022-07-11T15:38:36;0.65;;;0.65;;
30080;SDS011;16902;50.816;12.828;2022-07-11T15:43:38;0.60;;;0.60;;
30080;SDS011;16902;50.816;12.828;2022-07-11T15:48:39;1.33;;;0.47;;
30080;SDS011;16902;50.816;12.828;2022-07-11T15:53:41;0.70;;;0.70;;
30080;SDS011;16902;50.816;12.828;2022-07-11T15:58:43;0.70;;;0.70;;
30080;SDS011;16902;50.816;12.828;2022-07-11T16:03:47;1.02;;;0.68;;
30080;SDS011;16902;50.816;12.828;2022-07-11T16:08:49;2.00;;;0.60;;
30080;SDS011;16902;50.816;12.828;2022-07-11T16:13:51;0.98;;;0.50;;
30080;SDS011;16902;50.816;12.828;2022-07-11T16:18:53;4.60;;;0.95;;
30080;SDS011;16902;50.816;12.828;2022-07-11T16:23:58;1.65;;;0.77;;
30080;SDS011;16902;50.816;12.828;2022-07-11T16:29:00;2.20;;;1.00;;
30080;SDS011;16902;50.816;12.828;2022-07-11T16:34:02;0.90;;;0.90;;
30080;SDS011;16902;50.816;12.828;2022-07-11T16:39:03;1.75;;;1.00;;
30080;SDS011;16902;50.816;12.828;2022-07-11T16:44:23;0.70;;;0.70;;
30080;SDS011;16902;50.816;12.828;2022-07-11T16:49:25;1.00;;;0.90;;
30080;SDS011;16902;50.816;12.828;2022-07-11T16:54:27;0.80;;;0.80;;
30080;SDS011;16902;50.816;12.828;2022-07-11T16:59:28;1.20;;;1.02;;
30080;SDS011;16902;50.816;12.828;2022-07-11T17:04:30;1.75;;;1.02;;
30080;SDS011;16902;50.816;12.828;2022-07-11T17:09:32;2.53;;;0.80;;
30080;SDS011;16902;50.816;12.828;2022-07-11T17:14:35;1.55;;;0.88;;
30080;SDS011;16902;50.816;12.828;2022-07-11T17:19:37;1.85;;;0.82;;
30080;SDS011;16902;50.816;12.828;2022-07-11T17:24:39;0.93;;;0.60;;
30080;SDS011;16902;50.816;12.828;2022-07-11T17:29:40;0.70;;;0.70;;
30080;SDS011;16902;50.816;12.828;2022-07-11T17:34:42;0.80;;;0.80;;
30080;SDS011;16902;50.816;12.828;2022-07-11T17:39:45;1.73;;;0.95;;
30080;SDS011;16902;50.816;12.828;2022-07-11T17:44:48;2.33;;;0.80;;
30080;SDS011;16902;50.816;12.828;2022-07-11T17:49:50;0.80;;;0.80;;
30080;SDS011;16902;50.816;12.828;2022-07-11T17:54:52;0.90;;;0.90;;
30080;SDS011;16902;50.816;12.828;2022-07-11T17:59:54;1.65;;;0.90;;
30080;SDS011;16902;50.816;12.828;2022-07-11T18:04:55;1.40;;;0.90;;
30080;SDS011;16902;50.816;12.828;2022-07-11T18:09:57;1.27;;;1.05;;
30080;SDS011;16902;50.816;12.828;2022-07-11T18:14:59;0.90;;;0.90;;
30080;SDS011;16902;50.816;12.828;2022-07-11T18:20:01;0.80;;;0.80;;
30080;SDS011;16902;50.816;12.828;2022-07-11T18:25:06;0.80;;;0.80;;
30080;SDS011;16902;50.816;12.828;2022-07-11T18:30:09;1.65;;;0.82;;
30080;SDS011;16902;50.816;12.828;2022-07-11T18:35:11;1.33;;;0.82;;
30080;SDS011;16902;50.816;12.828;2022-07-11T18:40:13;2.47;;;0.90;;
30080;SDS011;16902;50.816;12.828;2022-07-11T18:45:33;1.15;;;0.90;;
30080;SDS011;16902;50.816;12.828;2022-07-11T18:50:35;1.00;;;1.00;;
30080;SDS011;16902;50.816;12.828;2022-07-11T18:55:38;1.55;;;1.10;;
30080;SDS011;16902;50.816;12.828;2022-07-11T19:00:39;1.98;;;1.27;;
30080;SDS011;16902;50.816;12.828;2022-07-11T19:05:48;1.40;;;1.30;;
30080;SDS011;16902;50.816;12.828;2022-07-11T19:10:50;1.60;;;1.50;;
30080;SDS011;16902;50.816;12.828;2022-07-11T19:15:51;2.35;;;1.55;;
30080;SDS011;16902;50.816;12.828;2022-07-11T19:20:53;3.47;;;1.70;;
30080;SDS011;16902;50.816;12.828;2022-07-11T19:25:55;1.55;;;1.45;;
30080;SDS011;16902;50.816;12.828;2022-07-11T19:30:57;3.42;;;1.35;;
30080;SDS011;16902;50.816;12.828;2022-07-11T19:35:58;2.00;;;1.60;;
30080;SDS011;16902;50.816;12.828;2022-07-11T19:41:00;1.70;;;1.60;;
30080;SDS011;16902;50.816;12.828;2022-07-11T19:46:02;1.52;;;1.42;;
30080;SDS011;16902;50.816;12.828;2022-07-11T19:51:04;2.00;;;1.40;;
30080;SDS011;16902;50.816;12.828;2022-07-11T19:56:06;4.55;;;2.10;;
30080;SDS011;16902;50.816;12.828;2022-07-11T20:01:27;4.18;;;2.17;;
30080;SDS011;16902;50.816;12.828;2022-07-11T20:06:29;1.70;;;1.60;;
30080;SDS011;16902;50.816;12.828;2022-07-11T20:11:31;2.03;;;1.55;;
30080;SDS011;16902;50.816;12.828;2022-07-11T20:16:32;1.80;;;1.70;;
30080;SDS011;16902;50.816;12.828;2022-07-11T20:21:34;1.50;;;1.40;;
30080;SDS011;16902;50.816;12.828;2022-07-11T20:26:36;1.50;;;1.40;;
30080;SDS011;16902;50.816;12.828;2022-07-11T20:31:37;1.55;;;1.45;;
30080;SDS011;16902;50.816;12.828;2022-07-11T20:36:39;1.83;;;1.73;;
30080;SDS011;16902;50.816;12.828;2022-07-11T20:41:41;1.80;;;1.70;;
30080;SDS011;16902;50.816;12.828;2022-07-11T20:46:42;1.90;;;1.73;;
30080;SDS011;16902;50.816;12.828;2022-07-11T20:51:45;2.58;;;1.73;;
30080;SDS011;16902;50.816;12.828;2022-07-11T20:56:47;2.47;;;2.28;;
30080;SDS011;16902;50.816;12.828;2022-07-11T21:01:49;2.95;;;2.00;;
30080;SDS011;16902;50.816;12.828;2022-07-11T21:06:51;1.88;;;1.77;;
30080;SDS011;16902;50.816;12.828;2022-07-11T21:11:53;2.17;;;1.95;;
30080;SDS011;16902;50.816;12.828;2022-07-11T21:16:55;2.00;;;1.88;;
30080;SDS011;16902;50.816;12.828;2022-07-11T21:22:02;2.13;;;2.03;;
30080;SDS011;16902;50.816;12.828;2022-07-11T21:27:04;2.38;;;2.17;;
30080;SDS011;16902;50.816;12.828;2022-07-11T21:32:06;2.55;;;2.35;;
30080;SDS011;16902;50.816;12.828;2022-07-11T21:37:08;3.40;;;2.30;;
30080;SDS011;16902;50.816;12.828;2022-07-11T21:42:10;2.60;;;2.40;;
30080;SDS011;16902;50.816;12.828;2022-07-11T21:47:12;5.13;;;2.35;;
30080;SDS011;16902;50.816;12.828;2022-07-11T21:52:15;2.88;;;2.47;;
30080;SDS011;16902;50.816;12.828;2022-07-11T21:57:16;2.75;;;2.55;;
30080;SDS011;16902;50.816;12.828;2022-07-11T22:02:18;2.60;;;2.40;;
30080;SDS011;16902;50.816;12.828;2022-07-11T22:07:20;3.00;;;2.70;;
30080;SDS011;16902;50.816;12.828;2022-07-11T22:12:22;3.30;;;2.20;;
30080;SDS011;16902;50.816;12.828;2022-07-11T22:17:24;2.67;;;1.83;;
30080;SDS011;16902;50.816;12.828;2022-07-11T22:22:26;2.47;;;2.25;;
30080;SDS011;16902;50.816;12.828;2022-07-11T22:27:28;2.30;;;2.20;;
30080;SDS011;16902;50.816;12.828;2022-07-11T22:32:30;2.78;;;2.58;;
30080;SDS011;16902;50.816;12.828;2022-07-11T22:37:32;2.33;;;2.10;;
30080;SDS011;16902;50.816;12.828;2022-07-11T22:42:34;3.80;;;2.30;;
30080;SDS011;16902;50.816;12.828;2022-07-11T22:47:56;2.50;;;2.28;;
30080;SDS011;16902;50.816;12.828;2022-07-11T22:52:58;2.10;;;2.00;;
30080;SDS011;16902;50.816;12.828;2022-07-11T22:58:01;2.42;;;2.22;;
30080;SDS011;16902;50.816;12.828;2022-07-11T23:03:03;2.45;;;2.10;;
30080;SDS011;16902;50.816;12.828;2022-07-11T23:08:05;2.67;;;2.10;;
30080;SDS011;16902;50.816;12.828;2022-07-11T23:13:08;2.60;;;2.40;;
30080;SDS011;16902;50.816;12.828;2022-07-11T23:18:09;2.60;;;2.40;;
30080;SDS011;16902;50.816;12.828;2022-07-11T23:23:11;2.20;;;2.10;;
30080;SDS011;16902;50.816;12.828;2022-07-11T23:28:13;2.53;;;2.33;;
30080;SDS011;16902;50.816;12.828;2022-07-11T23:33:15;2.30;;;2.20;;
30080;SDS011;16902;50.816;12.828;2022-07-11T23:38:17;3.10;;;2.65;;
30080;SDS011;16902;50.816;12.828;2022-07-11T23:43:19;2.55;;;2.35;;
30080;SDS011;16902;50.816;12.828;2022-07-11T23:48:21;2.80;;;2.50;;
30080;SDS011;16902;50.816;12.828;2022-07-11T23:53:23;2.92;;;2.72;;
30080;SDS011;16902;50.816;12.828;2022-07-11T23:58:25;2.72;;;2.53;;
